Historie AUP a zpráv METAR Praha-Ruzyně z 12:00 UTC

Datum: 08-08-2020 / Vyber datum:
LKPR 081200Z 02006KT 340V070 CAVOK 31/12 Q1021 NOSIG
Prostor Spodní hranice Horní hranice Od Do